Time;durP1;ratioP1;P1;durP2;ratioP2;P2;SDS_P1;SDS_P2;PMS_P1;PMS_P2;Temp;Humidity;BMP_temperature;BMP_pressure;BME280_temperature;BME280_humidity;BME280_pressure;Samples;Min_cycle;Max_cycle;Signal;HPM_P1;HPM_P2
2021/09/14 00:00:35;;;;;;;17.73;6.15;;;;;;;14.55;81.65;101631.91;5013569;28;20061;-42
2021/09/14 00:03:01;;;;;;;13.15;5.72;;;;;;;14.55;81.57;101629.19;5014791;28;20096;-43
2021/09/14 00:05:26;;;;;;;12.98;6.13;;;;;;;14.53;81.41;101626.66;5015037;28;20026;-42
2021/09/14 00:07:51;;;;;;;10.88;5.97;;;;;;;14.52;81.42;101629.56;5014672;28;20633;-42
2021/09/14 00:10:17;;;;;;;14.23;6.15;;;;;;;14.57;81.23;101630.69;5014971;28;20489;-42
2021/09/14 00:12:42;;;;;;;13.15;6.28;;;;;;;14.47;81.47;101632.81;5015194;28;20493;-42
2021/09/14 00:15:09;;;;;;;11.13;6.00;;;;;;;14.52;81.52;101630.38;5014895;28;20038;-43
2021/09/14 00:17:35;;;;;;;8.20;5.47;;;;;;;14.54;81.15;101628.38;5014732;28;20056;-42
2021/09/14 00:20:00;;;;;;;13.23;5.82;;;;;;;14.54;81.28;101631.06;5013913;28;20486;-42
2021/09/14 00:22:25;;;;;;;15.43;6.72;;;;;;;14.58;80.90;101632.38;5014471;28;20080;-42
2021/09/14 00:24:51;;;;;;;13.27;7.40;;;;;;;14.57;81.04;101629.88;5014425;28;20038;-42
2021/09/14 00:27:16;;;;;;;14.85;8.27;;;;;;;14.56;81.12;101631.75;5014724;28;20048;-43
2021/09/14 00:29:41;;;;;;;17.42;7.95;;;;;;;14.58;81.08;101635.06;5014608;28;20120;-42
2021/09/14 00:32:07;;;;;;;19.55;7.78;;;;;;;14.59;81.05;101633.22;5014777;28;20049;-42
2021/09/14 00:34:32;;;;;;;17.83;8.88;;;;;;;14.59;80.95;101633.22;5014290;28;20064;-43
2021/09/14 00:36:57;;;;;;;18.98;7.35;;;;;;;14.52;80.93;101627.69;5014776;28;20083;-42
2021/09/14 00:39:23;;;;;;;15.00;7.63;;;;;;;14.49;81.17;101628.06;5014346;28;20033;-42
2021/09/14 00:41:48;;;;;;;18.27;7.72;;;;;;;14.48;81.14;101615.53;5014661;28;20026;-42
2021/09/14 00:44:13;;;;;;;15.90;6.78;;;;;;;14.42;81.25;101625.25;5014391;28;20115;-43
2021/09/14 00:46:39;;;;;;;17.48;6.93;;;;;;;14.43;81.30;101618.81;5014377;28;20030;-42
2021/09/14 00:49:04;;;;;;;18.38;6.57;;;;;;;14.42;81.24;101627.97;5014238;28;20045;-43
2021/09/14 00:51:30;;;;;;;14.02;6.35;;;;;;;14.38;81.45;101618.56;5014177;28;20556;-42
2021/09/14 00:53:55;;;;;;;11.85;7.05;;;;;;;14.30;81.71;101617.78;5014217;28;20453;-42
2021/09/14 00:56:21;;;;;;;11.70;6.93;;;;;;;14.26;81.93;101620.88;5014376;28;20041;-43
2021/09/14 00:58:46;;;;;;;14.20;6.93;;;;;;;14.28;82.05;101613.41;5013633;28;20077;-42
2021/09/14 01:01:11;;;;;;;12.65;6.57;;;;;;;14.25;82.21;101616.50;5014334;28;20029;-42
2021/09/14 01:03:37;;;;;;;18.25;7.07;;;;;;;14.27;82.11;101611.75;5013814;28;20044;-43
2021/09/14 01:06:03;;;;;;;16.40;7.03;;;;;;;14.27;82.22;101610.91;5014130;28;20384;-43
2021/09/14 01:08:31;;;;;;;11.20;6.70;;;;;;;14.31;82.01;101598.66;5013903;28;20033;-42
2021/09/14 01:10:56;;;;;;;11.02;6.88;;;;;;;14.32;82.17;101599.50;5014162;28;20040;-43
2021/09/14 01:13:21;;;;;;;10.68;7.35;;;;;;;14.35;81.91;101601.81;5012708;28;20034;-42
2021/09/14 01:15:47;;;;;;;14.98;7.18;;;;;;;14.38;81.83;101598.75;5013601;28;20033;-43
2021/09/14 01:18:12;;;;;;;14.15;7.28;;;;;;;14.38;81.90;101593.34;5013585;28;20033;-43
2021/09/14 01:20:37;;;;;;;16.40;7.40;;;;;;;14.36;81.73;101596.22;5013550;28;20112;-43
2021/09/14 01:23:03;;;;;;;16.13;7.43;;;;;;;14.34;81.97;101602.84;5012970;28;20488;-42
2021/09/14 01:25:28;;;;;;;17.30;7.40;;;;;;;14.31;81.99;101597.81;5013653;28;20412;-42
2021/09/14 01:28:00;;;;;;;18.17;7.25;;;;;;;14.33;81.91;101595.78;5020178;28;20076;-42
2021/09/14 01:30:26;;;;;;;20.50;7.63;;;;;;;14.31;82.20;101595.94;5013989;28;20037;-43
2021/09/14 01:32:54;;;;;;;16.73;7.82;;;;;;;14.32;82.15;101586.78;5012656;28;20102;-43
2021/09/14 01:35:23;;;;;;;12.88;7.20;;;;;;;14.33;81.98;101587.66;5013466;28;20049;-42
2021/09/14 01:37:48;;;;;;;19.75;7.70;;;;;;;14.27;82.27;101590.09;5013405;28;20041;-42
2021/09/14 01:40:14;;;;;;;21.58;8.13;;;;;;;14.27;82.26;101589.25;5011519;28;20037;-42
2021/09/14 01:42:40;;;;;;;10.48;7.30;;;;;;;14.26;82.32;101588.38;5020425;28;20481;-42
2021/09/14 01:45:07;;;;;;;16.48;7.85;;;;;;;14.22;82.37;101580.84;5012738;28;20048;-42
2021/09/14 01:47:32;;;;;;;11.57;7.63;;;;;;;14.20;82.35;101586.44;5013044;28;20028;-43
2021/09/14 01:49:58;;;;;;;13.60;7.50;;;;;;;14.21;82.37;101588.09;5013203;28;20022;-42
2021/09/14 01:52:25;;;;;;;14.70;7.78;;;;;;;14.21;82.56;101581.84;5012814;28;20445;-42
2021/09/14 01:54:51;;;;;;;13.57;7.03;;;;;;;14.22;82.40;101587.09;5013210;28;20053;-42
2021/09/14 01:57:21;;;;;;;14.45;7.63;;;;;;;14.19;82.56;101584.78;5013208;28;20065;-42
2021/09/14 01:59:47;;;;;;;16.63;6.97;;;;;;;14.18;82.57;101585.78;5011834;28;20038;-42
2021/09/14 02:03:04;;;;;;;16.92;7.70;;;;;;;14.21;82.64;101579.97;5012456;28;20038;-42
2021/09/14 02:05:05;;;;;;;18.63;7.75;;;;;;;14.19;82.42;101576.66;5015103;28;20108;-42
2021/09/14 02:07:41;;;;;;;14.75;7.55;;;;;;;14.16;82.56;101568.88;5012859;28;20448;-42
2021/09/14 02:43:56;;;;;;;18.38;8.88;;;;;;;13.95;83.45;101544.44;5012130;28;20096;-42
2021/09/14 02:58:37;;;;;;;17.50;9.82;;;;;;;13.93;83.26;101547.34;5011978;28;20169;-43
2021/09/14 02:59:41;;;;;;;19.48;9.82;;;;;;;13.87;83.55;101531.00;5012038;28;20396;-43
2021/09/14 03:02:06;;;;;;;16.05;9.65;;;;;;;13.88;83.49;101532.72;5012042;28;20026;-42
2021/09/14 03:04:32;;;;;;;18.00;9.95;;;;;;;13.83;83.79;101520.56;5012166;28;20034;-42
2021/09/14 03:06:57;;;;;;;20.58;10.15;;;;;;;13.79;83.82;101519.25;5012560;28;20026;-42
2021/09/14 03:09:23;;;;;;;22.02;10.35;;;;;;;13.80;83.76;101509.28;5011841;28;20025;-43
2021/09/14 03:11:48;;;;;;;25.75;11.13;;;;;;;13.79;83.79;101508.41;5012136;28;20076;-42
2021/09/14 03:14:14;;;;;;;19.30;10.27;;;;;;;13.76;83.81;101500.69;5011768;28;20532;-42
2021/09/14 03:16:39;;;;;;;21.90;11.05;;;;;;;13.76;83.88;101497.97;5011995;28;20489;-41
2021/09/14 03:19:05;;;;;;;20.52;11.40;;;;;;;13.76;83.82;101495.28;5011866;28;20030;-42
2021/09/14 03:21:30;;;;;;;27.95;11.10;;;;;;;13.72;83.85;101485.88;5011628;28;20092;-41
2021/09/14 03:23:56;;;;;;;22.33;11.07;;;;;;;13.73;83.81;101492.94;5011650;28;20033;-41
2021/09/14 03:26:21;;;;;;;19.75;10.75;;;;;;;13.70;83.91;101487.91;5011624;28;20473;-41
2021/09/14 03:28:47;;;;;;;20.15;10.45;;;;;;;13.68;83.92;101503.47;5011718;28;20095;-41
2021/09/14 03:31:15;;;;;;;21.50;11.45;;;;;;;13.71;83.91;101488.75;5011908;28;20026;-41
2021/09/14 03:33:41;;;;;;;23.55;11.25;;;;;;;13.69;83.95;101485.38;5011591;28;20469;-42
2021/09/14 03:36:06;;;;;;;17.52;10.90;;;;;;;13.67;83.94;101487.47;5011720;28;20048;-42
2021/09/14 03:38:31;;;;;;;22.33;10.45;;;;;;;13.67;84.05;101482.06;5011564;28;20377;-43
2021/09/14 03:40:57;;;;;;;20.20;11.43;;;;;;;13.67;83.71;101482.06;5011565;28;20038;-42
2021/09/14 03:43:22;;;;;;;17.95;10.85;;;;;;;13.61;84.02;101483.59;5011767;28;20026;-42
2021/09/14 03:45:48;;;;;;;24.15;10.82;;;;;;;13.58;83.97;101474.00;5011535;28;20034;-42
2021/09/14 03:48:14;;;;;;;18.70;10.60;;;;;;;13.59;83.96;101477.56;5011750;28;20068;-42
2021/09/14 03:50:40;;;;;;;18.90;10.73;;;;;;;13.56;84.09;101475.22;5011767;28;20121;-42
2021/09/14 03:53:05;;;;;;;18.70;11.02;;;;;;;13.55;84.18;101478.94;5011479;28;20097;-42
2021/09/14 03:55:31;;;;;;;20.45;10.55;;;;;;;13.56;84.18;101477.91;5012390;28;20029;-42
2021/09/14 03:57:56;;;;;;;19.30;11.40;;;;;;;13.56;83.96;101469.81;5015391;28;20040;-42
2021/09/14 04:00:22;;;;;;;16.10;10.27;;;;;;;13.54;84.06;101474.59;5014983;28;20053;-42
2021/09/14 04:03:12;;;;;;;18.15;11.02;;;;;;;13.53;84.01;101478.28;5015288;28;20509;-43
2021/09/14 04:05:58;;;;;;;21.88;10.98;;;;;;;13.52;83.93;101480.16;5015327;28;20060;-42
2021/09/14 04:11:07;;;;;;;22.48;11.32;;;;;;;13.51;83.92;101475.78;5015137;28;20096;-43
2021/09/14 04:13:33;;;;;;;18.38;10.95;;;;;;;13.50;84.02;101478.66;5015006;28;20034;-43
2021/09/14 04:15:58;;;;;;;24.30;10.95;;;;;;;13.46;84.07;101477.38;5014769;28;20440;-42
2021/09/14 04:18:23;;;;;;;19.08;11.43;;;;;;;13.45;84.02;101476.50;5014971;28;20029;-42
2021/09/14 04:20:49;;;;;;;19.23;10.82;;;;;;;13.44;84.18;101472.13;5013584;28;20029;-42
2021/09/14 04:23:14;;;;;;;27.35;11.25;;;;;;;13.44;84.08;101474.00;5014650;28;20029;-42
2021/09/14 04:25:39;;;;;;;21.27;11.30;;;;;;;13.42;84.21;101467.94;5014797;28;20064;-42
2021/09/14 04:28:05;;;;;;;22.13;12.07;;;;;;;13.37;84.25;101465.78;5014560;28;20030;-42
2021/09/14 04:30:30;;;;;;;21.10;12.00;;;;;;;13.35;84.51;101471.41;5014352;28;20025;-42
2021/09/14 04:32:55;;;;;;;19.90;12.02;;;;;;;13.30;84.51;101463.00;5013330;28;20386;-43
2021/09/14 04:35:21;;;;;;;20.23;11.05;;;;;;;13.34;84.38;101467.00;5009904;28;20037;-42
2021/09/14 04:37:46;;;;;;;20.75;11.50;;;;;;;13.30;84.47;101465.69;5014645;28;20084;-43
2021/09/14 04:40:12;;;;;;;20.63;11.40;;;;;;;13.29;84.37;101461.31;5013920;28;20460;-42
2021/09/14 04:42:37;;;;;;;20.08;12.05;;;;;;;13.32;84.50;101465.50;5014170;28;20469;-42
2021/09/14 04:45:03;;;;;;;21.65;12.50;;;;;;;13.32;84.38;101458.25;5014052;28;20034;-42
2021/09/14 04:47:29;;;;;;;24.10;12.02;;;;;;;13.32;84.34;101457.38;5015493;28;20033;-41
2021/09/14 04:49:54;;;;;;;19.90;11.10;;;;;;;13.33;84.11;101454.50;5017978;28;20038;-42
2021/09/14 04:52:19;;;;;;;23.73;12.57;;;;;;;13.34;84.22;101456.19;5021523;28;20453;-42
2021/09/14 04:54:44;;;;;;;28.13;12.52;;;;;;;13.33;84.00;101454.50;5013781;28;20025;-43
2021/09/14 04:57:10;;;;;;;27.50;12.63;;;;;;;13.29;84.18;101445.09;5014007;28;20025;-42
2021/09/14 04:59:35;;;;;;;24.23;12.65;;;;;;;13.30;84.28;101454.88;5013625;28;20030;-42
2021/09/14 05:02:00;;;;;;;18.50;11.90;;;;;;;13.27;84.33;101457.09;5013603;28;20018;-42
2021/09/14 05:04:26;;;;;;;20.67;11.60;;;;;;;13.29;84.29;101457.75;5013558;28;20033;-42
2021/09/14 05:06:51;;;;;;;18.92;12.25;;;;;;;13.27;84.47;101460.66;5013268;28;20022;-42
2021/09/14 05:09:16;;;;;;;21.52;12.90;;;;;;;13.30;84.24;101464.88;5009160;28;20057;-43
2021/09/14 05:11:44;;;;;;;19.90;12.05;;;;;;;13.31;84.06;101456.56;5028827;28;20057;-43
2021/09/14 05:14:09;;;;;;;18.73;12.60;;;;;;;13.28;83.81;101456.94;5013641;28;20087;-43
2021/09/14 05:16:35;;;;;;;19.60;11.93;;;;;;;13.30;83.82;101460.28;5013093;28;20034;-42
2021/09/14 05:19:01;;;;;;;19.63;12.30;;;;;;;13.29;83.66;101457.75;5007081;28;20129;-42
2021/09/14 05:21:27;;;;;;;22.00;12.88;;;;;;;13.28;83.90;101459.63;5011710;28;20029;-42
2021/09/14 05:23:52;;;;;;;22.02;12.88;;;;;;;13.22;84.04;101463.06;5012198;28;20601;-42
2021/09/14 05:26:21;;;;;;;21.60;11.60;;;;;;;13.26;83.90;101464.38;5012589;28;20160;-42
2021/09/14 05:28:46;;;;;;;22.48;12.38;;;;;;;13.27;83.83;101449.84;5012180;28;20333;-42
2021/09/14 05:31:11;;;;;;;19.65;12.70;;;;;;;13.25;83.93;101446.47;5011741;28;20109;-43
2021/09/14 05:33:38;;;;;;;23.98;12.68;;;;;;;13.28;83.79;101446.13;5011968;28;20116;-42
2021/09/14 05:36:04;;;;;;;24.13;13.67;;;;;;;13.24;83.87;101435.81;5011370;28;20365;-43
2021/09/14 05:38:29;;;;;;;22.63;13.05;;;;;;;13.27;83.90;101433.63;5027540;28;20044;-42
2021/09/14 05:40:56;;;;;;;25.63;13.40;;;;;;;13.26;83.95;101429.25;5011639;28;20414;-43
2021/09/14 05:43:22;;;;;;;21.23;13.18;;;;;;;13.30;83.76;101427.03;5012170;28;20026;-42
2021/09/14 05:45:48;;;;;;;21.52;12.88;;;;;;;13.32;83.69;101424.94;5011533;28;20030;-42
2021/09/14 05:48:14;;;;;;;24.70;13.32;;;;;;;13.32;83.46;101431.22;5011449;28;20369;-43
2021/09/14 05:50:40;;;;;;;24.52;13.43;;;;;;;13.41;83.36;101431.13;5010953;28;20036;-44
2021/09/14 05:53:05;;;;;;;26.67;14.20;;;;;;;13.43;83.03;101426.34;5011295;28;20121;-42
2021/09/14 05:55:31;;;;;;;21.45;12.55;;;;;;;13.43;82.99;101427.22;5011208;28;20028;-42
2021/09/14 05:57:56;;;;;;;21.90;12.95;;;;;;;13.49;82.44;101436.44;5010486;28;20063;-42
2021/09/14 06:00:22;;;;;;;24.15;13.15;;;;;;;13.50;82.54;101430.81;5011090;28;20030;-43
2021/09/14 06:02:48;;;;;;;22.40;13.38;;;;;;;13.48;82.65;101430.19;5010969;28;20030;-42
2021/09/14 06:05:13;;;;;;;23.55;12.35;;;;;;;13.49;82.37;101423.75;5011004;28;20366;-42
2021/09/14 06:07:39;;;;;;;23.63;13.23;;;;;;;13.47;82.52;101419.56;5010560;28;20040;-43
2021/09/14 06:10:04;;;;;;;25.65;13.07;;;;;;;13.48;82.58;101419.38;5010585;28;20086;-43
2021/09/14 06:12:30;;;;;;;21.67;13.35;;;;;;;13.43;82.69;101421.81;5010615;28;20037;-41
2021/09/14 06:14:55;;;;;;;21.70;12.93;;;;;;;13.51;82.57;101412.75;5009640;28;20084;-42
2021/09/14 06:17:21;;;;;;;25.75;14.13;;;;;;;13.52;82.55;101417.97;5010511;28;20507;-43
2021/09/14 06:19:46;;;;;;;27.58;13.23;;;;;;;13.57;82.44;101417.41;5009622;28;20048;-42
2021/09/14 06:22:11;;;;;;;28.90;13.10;;;;;;;13.63;82.22;101410.41;5010081;28;20366;-41
2021/09/14 06:24:37;;;;;;;24.98;13.07;;;;;;;13.67;82.21;101412.56;5008156;28;20397;-42
2021/09/14 06:27:02;;;;;;;21.17;13.32;;;;;;;13.71;82.06;101413.84;5010295;28;20026;-41
2021/09/14 06:29:27;;;;;;;23.55;13.52;;;;;;;13.75;81.71;101415.16;5010667;28;20406;-42
2021/09/14 06:31:53;;;;;;;27.25;13.82;;;;;;;13.81;81.43;101422.50;5009278;28;20105;-43
2021/09/14 06:34:18;;;;;;;26.13;14.73;;;;;;;13.92;80.87;101423.88;5006008;28;20064;-42
2021/09/14 06:36:43;;;;;;;22.27;12.90;;;;;;;14.02;80.91;101426.28;5010779;28;20026;-42
2021/09/14 06:39:09;;;;;;;18.48;12.90;;;;;;;14.18;80.54;101430.63;5010223;28;20179;-43
2021/09/14 06:41:34;;;;;;;23.50;12.73;;;;;;;14.65;79.38;101421.16;4999177;28;20116;-41
2021/09/14 06:43:59;;;;;;;20.05;11.40;;;;;;;15.52;76.45;101423.44;5007607;28;20445;-42
2021/09/14 06:46:25;;;;;;;19.95;11.60;;;;;;;16.37;72.87;101423.97;5007816;28;20422;-41
2021/09/14 06:48:51;;;;;;;17.15;11.10;;;;;;;17.04;69.66;101421.34;5007927;28;20049;-41
2021/09/14 06:51:17;;;;;;;29.65;11.05;;;;;;;17.25;68.56;101418.38;5011960;28;20022;-42
2021/09/14 06:53:42;;;;;;;20.65;11.15;;;;;;;17.36;68.25;101418.78;5008764;28;20403;-41
2021/09/14 06:56:08;;;;;;;14.88;10.63;;;;;;;17.25;68.49;101418.38;4992201;28;20037;-41
2021/09/14 06:58:34;;;;;;;17.08;11.57;;;;;;;17.00;69.05;101425.53;4992227;28;20031;-41
2021/09/14 07:00:59;;;;;;;18.92;11.95;;;;;;;16.93;69.27;101427.41;4999481;28;20048;-43
2021/09/14 07:03:24;;;;;;;17.92;12.80;;;;;;;16.83;69.77;101420.50;5026997;28;20109;-42
2021/09/14 07:05:50;;;;;;;19.25;11.40;;;;;;;17.23;68.63;101417.75;5009801;28;20033;-42
2021/09/14 07:08:15;;;;;;;17.80;10.80;;;;;;;17.49;67.29;101416.03;5009139;28;20030;-43
2021/09/14 07:10:41;;;;;;;17.52;11.88;;;;;;;17.65;66.90;101414.72;5011475;28;20057;-43
2021/09/14 07:13:06;;;;;;;22.05;11.48;;;;;;;17.88;66.28;101416.97;5025174;28;20029;-43
2021/09/14 07:15:32;;;;;;;19.65;10.85;;;;;;;18.18;65.49;101419.94;5006680;28;20433;-41
2021/09/14 07:17:57;;;;;;;14.15;11.32;;;;;;;18.46;64.55;101427.75;5001694;28;20030;-41
2021/09/14 07:20:22;;;;;;;17.05;11.32;;;;;;;18.99;63.12;101427.38;5009240;28;20034;-42
2021/09/14 07:22:48;;;;;;;19.45;11.70;;;;;;;19.42;61.11;101423.78;5010963;28;20026;-41
2021/09/14 07:25:13;;;;;;;16.30;12.05;;;;;;;19.45;60.63;101427.94;5011075;28;20053;-41
2021/09/14 07:27:39;;;;;;;20.45;11.90;;;;;;;19.84;59.98;101413.03;5011143;28;20037;-42
2021/09/14 07:30:05;;;;;;;19.33;12.00;;;;;;;19.72;60.28;101412.97;5010051;28;20137;-43
2021/09/14 07:32:30;;;;;;;20.70;11.90;;;;;;;19.87;59.53;101407.09;5013755;28;20477;-42
2021/09/14 07:34:56;;;;;;;17.95;11.38;;;;;;;20.63;58.84;101412.97;5014845;28;20029;-41
2021/09/14 07:37:21;;;;;;;14.43;10.35;;;;;;;21.71;55.37;101408.09;5014591;28;20556;-42
2021/09/14 07:39:46;;;;;;;13.48;10.40;;;;;;;21.76;54.37;101399.16;5011443;28;20029;-40
2021/09/14 07:42:12;;;;;;;17.42;10.77;;;;;;;20.64;57.37;101400.13;5014753;28;20022;-43
2021/09/14 07:44:37;;;;;;;17.25;11.35;;;;;;;19.68;60.11;101400.84;5014585;28;20030;-42
2021/09/14 07:47:03;;;;;;;19.70;12.68;;;;;;;18.81;62.86;101400.03;5015051;28;20022;-41
2021/09/14 07:49:28;;;;;;;18.17;11.57;;;;;;;18.69;63.89;101407.22;5014444;28;20562;-42
2021/09/14 07:51:53;;;;;;;15.85;11.25;;;;;;;19.67;61.29;101398.34;5014354;28;20025;-41
2021/09/14 07:54:18;;;;;;;17.60;11.45;;;;;;;20.51;58.68;101399.28;5014833;28;20041;-41
2021/09/14 07:56:44;;;;;;;15.45;11.18;;;;;;;21.30;56.31;101409.06;5014490;28;20022;-43
2021/09/14 07:59:09;;;;;;;16.75;11.63;;;;;;;21.83;54.72;101405.34;5029738;28;20060;-42
2021/09/14 08:01:35;;;;;;;16.70;10.73;;;;;;;22.42;53.61;101402.34;5013487;28;20030;-42
2021/09/14 08:04:00;;;;;;;13.88;10.38;;;;;;;22.87;51.73;101413.25;5014243;28;20535;-41
2021/09/14 08:06:26;;;;;;;14.73;10.55;;;;;;;23.43;51.03;101408.63;5014471;28;20025;-43
2021/09/14 08:08:51;;;;;;;16.52;11.85;;;;;;;23.67;49.27;101420.22;5014769;28;20033;-41
2021/09/14 08:11:16;;;;;;;30.25;13.15;;;;;;;22.96;51.49;101417.28;5013911;28;20036;-42
2021/09/14 08:13:44;;;;;;;15.95;11.23;;;;;;;23.45;50.90;101411.09;5014164;28;20049;-42
2021/09/14 08:16:10;;;;;;;20.65;13.23;;;;;;;22.93;51.44;101408.66;5014719;28;20365;-41
2021/09/14 08:18:35;;;;;;;20.25;13.65;;;;;;;23.21;50.65;101407.75;5012054;28;20706;-42
2021/09/14 08:21:00;;;;;;;20.95;13.20;;;;;;;23.52;51.09;101405.44;5014155;28;20488;-42
2021/09/14 08:23:26;;;;;;;15.75;11.98;;;;;;;24.03;48.95;101400.56;5014363;28;20028;-42
2021/09/14 08:25:51;;;;;;;20.45;12.32;;;;;;;23.60;50.79;101402.25;5013545;28;20392;-42
2021/09/14 08:28:18;;;;;;;18.15;12.30;;;;;;;23.05;51.80;101411.38;5008411;28;20038;-41
2021/09/14 08:30:43;;;;;;;20.13;14.47;;;;;;;23.33;51.54;101413.13;5013937;28;20033;-42
2021/09/14 08:33:09;;;;;;;21.85;12.32;;;;;;;23.77;50.61;101405.78;5015294;28;20030;-43
2021/09/14 08:35:34;;;;;;;18.75;12.98;;;;;;;24.25;49.58;101403.25;5003940;28;20033;-42
2021/09/14 08:38:00;;;;;;;22.58;13.75;;;;;;;24.30;48.84;101398.66;4998085;28;20022;-43
2021/09/14 08:40:25;;;;;;;15.93;12.90;;;;;;;24.56;48.24;101396.16;5010777;28;20037;-41
2021/09/14 08:42:51;;;;;;;17.20;13.75;;;;;;;24.48;47.93;101407.66;5010069;28;20100;-43
2021/09/14 08:45:16;;;;;;;22.88;14.85;;;;;;;24.68;47.26;101407.00;5007665;28;20033;-41
2021/09/14 08:47:42;;;;;;;20.25;14.13;;;;;;;24.76;46.87;101406.53;5009144;28;20027;-42
2021/09/14 08:50:08;;;;;;;23.88;13.30;;;;;;;25.02;47.46;101418.56;5013441;28;20046;-41
2021/09/14 08:52:34;;;;;;;25.25;13.45;;;;;;;26.17;44.89;101411.41;5013297;28;20124;-40
2021/09/14 08:54:59;;;;;;;18.08;13.57;;;;;;;26.62;42.99;101401.53;5006302;28;20101;-41
2021/09/14 08:57:25;;;;;;;22.08;14.35;;;;;;;26.21;44.03;101401.50;5000684;28;20041;-42
2021/09/14 08:59:54;;;;;;;18.48;14.05;;;;;;;25.68;45.51;101398.00;5012690;28;20038;-43
2021/09/14 09:02:21;;;;;;;19.17;14.45;;;;;;;25.85;44.97;101398.63;5005224;28;20119;-44
2021/09/14 09:05:05;;;;;;;17.23;13.90;;;;;;;25.79;45.58;101396.94;5002751;28;20568;-43
2021/09/14 09:07:35;;;;;;;19.75;13.32;;;;;;;25.27;46.06;101409.63;5004410;28;20029;-44
2021/09/14 09:10:15;;;;;;;28.23;14.13;;;;;;;25.29;46.45;101423.16;5025712;28;20087;-47
2021/09/14 09:12:45;;;;;;;23.70;14.50;;;;;;;24.78;46.84;101407.09;5008017;28;20049;-45
2021/09/14 09:15:29;;;;;;;34.67;15.13;;;;;;;24.11;49.13;101394.59;5011770;28;20034;-45
2021/09/14 09:18:11;;;;;;;24.52;15.18;;;;;;;23.96;49.85;101406.28;5012164;28;20029;-44
2021/09/14 09:20:40;;;;;;;24.52;13.88;;;;;;;23.59;51.24;101393.19;5008377;28;20530;-43
2021/09/14 09:23:26;;;;;;;19.27;14.10;;;;;;;23.69;50.76;101397.94;5005308;28;20030;-43
2021/09/14 09:26:04;;;;;;;18.70;13.52;;;;;;;23.90;49.42;101403.72;5008376;28;20053;-44
2021/09/14 09:28:29;;;;;;;23.23;13.85;;;;;;;24.37;48.77;101394.88;5007638;28;20478;-46
2021/09/14 09:30:57;;;;;;;27.95;13.43;;;;;;;24.68;48.56;101391.31;5011315;28;20113;-45
2021/09/14 09:33:25;;;;;;;24.48;11.00;;;;;;;24.42;49.33;101387.47;5013049;28;20044;-42
2021/09/14 09:35:50;;;;;;;18.63;13.00;;;;;;;24.28;48.68;101384.34;5008593;28;20620;-43
2021/09/14 09:38:16;;;;;;;28.42;12.88;;;;;;;23.73;50.21;101381.81;5008708;28;20042;-44
2021/09/14 09:40:42;;;;;;;30.13;14.15;;;;;;;22.87;52.60;101388.53;5001078;28;20113;-42
2021/09/14 09:43:09;;;;;;;19.38;12.95;;;;;;;22.67;52.63;101382.72;5012847;28;20473;-43
2021/09/14 09:45:46;;;;;;;26.33;12.35;;;;;;;22.49;54.08;101386.56;5008984;28;20049;-45
2021/09/14 09:48:13;;;;;;;24.97;13.77;;;;;;;22.23;54.41;101393.50;5010888;28;20030;-45
2021/09/14 09:50:39;;;;;;;30.70;14.35;;;;;;;22.05;55.46;101380.81;5011523;28;20625;-41
2021/09/14 09:53:06;;;;;;;26.35;14.30;;;;;;;22.18;54.80;101387.91;5012158;28;20103;-42
2021/09/14 09:55:33;;;;;;;24.98;14.02;;;;;;;22.00;55.04;101377.97;5009417;28;20065;-42
2021/09/14 09:57:59;;;;;;;20.13;12.02;;;;;;;21.92;56.45;101376.44;5009804;28;20026;-42
2021/09/14 10:00:24;;;;;;;19.45;13.45;;;;;;;21.66;56.44;101381.41;5006910;28;20397;-44
2021/09/14 10:02:53;;;;;;;31.23;14.13;;;;;;;21.76;56.11;101372.59;5008279;28;20029;-43
2021/09/14 10:05:20;;;;;;;22.58;12.10;;;;;;;21.95;56.92;101369.66;5023311;28;20025;-42
2021/09/14 10:07:46;;;;;;;22.27;13.13;;;;;;;22.13;55.52;101367.53;5026391;28;20029;-43
2021/09/14 10:10:12;;;;;;;21.75;13.00;;;;;;;22.33;55.56;101371.75;5010916;28;20064;-43
2021/09/14 10:12:37;;;;;;;19.95;12.60;;;;;;;22.27;55.90;101380.97;5010355;28;20120;-42
2021/09/14 10:15:05;;;;;;;22.40;13.15;;;;;;;22.13;55.95;101380.41;5005119;28;20026;-44
2021/09/14 10:17:45;;;;;;;19.85;12.38;;;;;;;22.03;56.82;101372.81;5008642;28;20060;-44
2021/09/14 10:20:11;;;;;;;19.08;12.60;;;;;;;21.94;56.27;101362.50;5002642;28;20496;-46
2021/09/14 10:22:37;;;;;;;17.77;11.07;;;;;;;22.16;55.92;101359.91;5010572;28;20029;-43
2021/09/14 10:25:04;;;;;;;17.73;12.32;;;;;;;22.33;54.95;101366.28;5011525;28;20112;-45
2021/09/14 10:27:35;;;;;;;19.70;11.88;;;;;;;22.23;56.25;101371.56;5011894;28;20094;-42
2021/09/14 10:30:01;;;;;;;30.38;13.15;;;;;;;21.99;55.97;101377.16;5011265;28;20025;-44
2021/09/14 10:32:38;;;;;;;17.52;11.88;;;;;;;22.21;56.87;101376.47;5011122;28;20036;-43
2021/09/14 10:35:04;;;;;;;18.73;11.93;;;;;;;22.35;55.81;101369.59;5004751;28;20030;-45
2021/09/14 10:37:33;;;;;;;17.38;13.60;;;;;;;22.51;54.32;101357.81;5011016;28;20037;-44
2021/09/14 10:40:06;;;;;;;18.85;12.43;;;;;;;22.51;54.29;101356.97;5011524;28;20033;-44
2021/09/14 10:42:36;;;;;;;18.52;12.57;;;;;;;22.37;55.11;101352.91;5011821;28;20030;-43
2021/09/14 10:45:11;;;;;;;17.77;13.05;;;;;;;22.39;54.97;101348.00;5010887;28;20029;-44
2021/09/14 10:47:38;;;;;;;18.15;13.23;;;;;;;22.50;54.77;101339.66;5008170;28;20034;-44
2021/09/14 10:50:05;;;;;;;16.65;11.95;;;;;;;22.77;53.87;101334.31;5007581;28;20045;-44
2021/09/14 10:52:30;;;;;;;22.02;14.10;;;;;;;23.04;53.56;101341.06;5012088;28;20107;-44
2021/09/14 10:54:56;;;;;;;17.58;12.32;;;;;;;23.23;53.95;101331.44;5011256;28;20033;-43
2021/09/14 10:57:31;;;;;;;21.75;13.35;;;;;;;23.28;53.74;101328.78;5003241;28;20034;-43
2021/09/14 10:59:56;;;;;;;23.52;13.40;;;;;;;23.36;52.51;101336.56;5011464;28;20101;-43
2021/09/14 11:02:25;;;;;;;21.77;13.15;;;;;;;22.90;53.39;101333.16;5010045;28;20026;-42
2021/09/14 11:04:51;;;;;;;17.83;13.07;;;;;;;23.14;52.98;101316.50;5008445;28;20022;-43
2021/09/14 11:07:17;;;;;;;17.85;12.48;;;;;;;23.26;53.47;101328.19;5012327;28;20049;-43
2021/09/14 11:09:44;;;;;;;15.18;11.85;;;;;;;23.39;53.54;101310.50;5015341;28;20109;-43
2021/09/14 11:12:20;;;;;;;19.70;11.23;;;;;;;23.64;53.50;101305.31;5015122;28;20030;-43
2021/09/14 11:14:45;;;;;;;19.85;12.18;;;;;;;23.94;51.55;101301.25;5014587;28;20651;-43
2021/09/14 11:17:30;;;;;;;21.30;12.40;;;;;;;23.95;51.65;101302.06;5013903;28;20026;-42
2021/09/14 11:20:13;;;;;;;23.38;12.68;;;;;;;24.89;49.02;101289.59;5012227;28;20037;-43
2021/09/14 11:22:41;;;;;;;25.27;10.95;;;;;;;25.11;49.83;101287.50;5011313;28;20026;-42
2021/09/14 11:25:17;;;;;;;23.15;11.50;;;;;;;25.91;46.70;101305.72;5014094;28;20033;-43
2021/09/14 11:27:59;;;;;;;16.70;10.55;;;;;;;26.28;45.61;101306.31;5014427;28;20042;-44
2021/09/14 11:30:25;;;;;;;16.90;12.48;;;;;;;26.56;45.22;101301.34;5011557;28;20466;-44
2021/09/14 11:32:52;;;;;;;16.25;11.35;;;;;;;26.49;46.24;101301.59;5012177;28;20060;-45
2021/09/14 11:35:18;;;;;;;15.82;11.02;;;;;;;27.34;44.30;101287.03;5010662;28;20034;-44
2021/09/14 11:37:43;;;;;;;17.92;11.35;;;;;;;27.46;44.91;101294.16;5003288;28;20041;-45
2021/09/14 11:40:19;;;;;;;17.95;11.10;;;;;;;27.23;44.07;101288.22;5014447;28;20026;-43
2021/09/14 11:42:55;;;;;;;20.67;12.70;;;;;;;27.36;44.01;101284.81;5005321;28;20612;-44
2021/09/14 11:45:23;;;;;;;19.17;10.68;;;;;;;27.78;43.51;101290.94;5008355;28;20377;-44
2021/09/14 11:47:49;;;;;;;30.42;12.40;;;;;;;27.87;43.86;101278.19;5021547;28;20341;-43
2021/09/14 11:50:34;;;;;;;17.42;12.05;;;;;;;28.02;42.72;101286.38;4998795;28;20082;-45
2021/09/14 11:53:08;;;;;;;29.38;10.63;;;;;;;28.31;42.98;101282.81;4995199;28;20141;-43
2021/09/14 11:55:34;;;;;;;14.80;10.63;;;;;;;29.03;40.53;101285.66;5014868;28;20053;-44
2021/09/14 11:58:00;;;;;;;27.23;11.88;;;;;;;28.65;41.64;101277.25;5005849;28;20022;-45